createdAt,value
2019-05-29T00:01:45.540Z,99.90
2019-05-29T00:04:15.463Z,99.90
2019-05-29T00:06:45.575Z,99.90
2019-05-29T00:09:15.634Z,99.90
2019-05-29T00:11:45.586Z,99.90
2019-05-29T00:14:26.575Z,99.90
2019-05-29T00:16:47.198Z,99.90
2019-05-29T00:19:17.217Z,99.90
2019-05-29T00:21:47.149Z,99.90
2019-05-29T00:24:17.112Z,99.90
2019-05-29T00:26:47.123Z,99.90
2019-05-29T00:29:17.917Z,99.90
2019-05-29T00:31:48.069Z,99.90
2019-05-29T00:34:18.369Z,99.90
2019-05-29T00:36:49.029Z,99.90
2019-05-29T00:39:19.015Z,99.90
2019-05-29T00:41:49.080Z,99.90
2019-05-29T00:44:33.626Z,99.90
2019-05-29T00:46:52.333Z,99.90
2019-05-29T00:49:22.456Z,99.90
2019-05-29T00:51:52.492Z,99.90
2019-05-29T00:54:22.547Z,99.90
2019-05-29T00:56:52.751Z,99.90
2019-05-29T00:59:23.044Z,99.90
2019-05-29T01:01:53.131Z,99.90
2019-05-29T01:04:26.034Z,99.90
2019-05-29T01:06:56.063Z,99.90
2019-05-29T01:09:25.960Z,99.90
2019-05-29T01:11:55.885Z,99.90
2019-05-29T01:14:25.974Z,99.90
2019-05-29T01:16:55.935Z,99.90
2019-05-29T01:19:26.040Z,99.90
2019-05-29T01:21:57.519Z,99.90
2019-05-29T01:24:27.725Z,99.90
2019-05-29T01:26:58.477Z,99.90
2019-05-29T01:29:28.500Z,99.90
2019-05-29T01:31:58.430Z,99.90
2019-05-29T01:34:28.555Z,99.90
2019-05-29T01:36:58.513Z,99.90
2019-05-29T01:39:28.465Z,99.90
2019-05-29T01:41:58.414Z,99.90
2019-05-29T01:44:28.339Z,99.90
2019-05-29T01:46:58.267Z,99.90
2019-05-29T01:49:28.865Z,99.90
2019-05-29T01:51:58.833Z,99.90
2019-05-29T01:54:28.755Z,99.90
2019-05-29T01:56:58.765Z,99.90
2019-05-29T01:59:28.935Z,99.90
2019-05-29T02:01:58.919Z,99.90
2019-05-29T02:04:29.088Z,99.90
2019-05-29T02:06:59.131Z,99.90
2019-05-29T02:09:32.525Z,99.90
2019-05-29T02:12:02.919Z,99.90
2019-05-29T02:14:32.945Z,99.90
2019-05-29T02:17:02.887Z,99.90
2019-05-29T02:19:32.872Z,99.90
2019-05-29T02:22:02.748Z,99.90
2019-05-29T02:24:32.670Z,99.90
2019-05-29T02:27:02.546Z,99.90
2019-05-29T02:29:32.608Z,99.90
2019-05-29T02:32:03.033Z,99.90
2019-05-29T02:34:32.943Z,99.90
2019-05-29T02:37:02.804Z,99.90
2019-05-29T02:39:32.704Z,99.90
2019-05-29T02:42:02.665Z,99.90
2019-05-29T02:44:32.989Z,99.90
2019-05-29T02:47:02.878Z,99.90
2019-05-29T02:49:32.769Z,99.90
2019-05-29T02:52:02.635Z,99.90
2019-05-29T02:54:32.590Z,99.90
2019-05-29T02:57:02.473Z,99.90
2019-05-29T02:59:32.565Z,99.90
2019-05-29T03:02:02.578Z,99.90
2019-05-29T03:04:33.173Z,99.90
2019-05-29T03:07:03.734Z,99.90
2019-05-29T03:09:34.395Z,99.90
2019-05-29T03:12:04.430Z,99.90
2019-05-29T03:14:35.000Z,99.90
2019-05-29T03:17:05.389Z,99.90
2019-05-29T03:19:35.406Z,99.90
2019-05-29T03:22:05.387Z,99.90
2019-05-29T03:24:35.602Z,99.90
2019-05-29T03:27:05.798Z,99.90
2019-05-29T03:29:36.136Z,99.90
2019-05-29T03:32:13.328Z,99.90
2019-05-29T03:34:45.584Z,99.90
2019-05-29T03:37:09.443Z,99.90
2019-05-29T03:39:39.345Z,99.90
2019-05-29T03:42:09.275Z,99.90
2019-05-29T03:44:39.611Z,99.90
2019-05-29T03:47:09.739Z,99.90
2019-05-29T03:49:39.703Z,99.90
2019-05-29T03:52:09.643Z,99.90
2019-05-29T03:54:40.160Z,99.90
2019-05-29T03:57:10.053Z,99.90
2019-05-29T03:59:39.955Z,99.90
2019-05-29T04:02:10.134Z,99.90
2019-05-29T04:04:40.350Z,99.90
2019-05-29T04:07:10.223Z,99.90
2019-05-29T04:09:40.145Z,99.90
2019-05-29T04:12:10.082Z,99.90
2019-05-29T04:14:40.332Z,99.90
2019-05-29T04:17:11.141Z,99.90
2019-05-29T04:19:41.417Z,99.90
2019-05-29T04:22:12.549Z,99.90
2019-05-29T04:24:42.627Z,99.90
2019-05-29T04:27:14.215Z,99.90
2019-05-29T04:29:45.323Z,99.90
2019-05-29T04:32:15.233Z,99.90
2019-05-29T04:34:45.343Z,99.90
2019-05-29T04:37:15.235Z,99.90
2019-05-29T04:39:45.172Z,99.90
2019-05-29T04:42:15.122Z,99.90
2019-05-29T04:44:45.028Z,99.90
2019-05-29T04:47:15.034Z,99.90
2019-05-29T04:49:44.998Z,99.90
2019-05-29T04:52:14.966Z,99.90
2019-05-29T04:54:44.890Z,99.90
2019-05-29T04:57:14.776Z,99.90
2019-05-29T04:59:44.818Z,99.90
2019-05-29T05:02:14.685Z,99.90
2019-05-29T05:04:44.577Z,99.90
2019-05-29T05:07:14.497Z,99.90
2019-05-29T05:09:44.406Z,99.90
2019-05-29T05:12:14.282Z,99.90
2019-05-29T05:14:44.386Z,99.90
2019-05-29T05:17:25.726Z,99.90
2019-05-29T05:19:46.132Z,99.90
2019-05-29T05:22:15.999Z,99.90
2019-05-29T05:24:46.121Z,99.90
2019-05-29T05:27:16.127Z,99.90
2019-05-29T05:29:46.091Z,99.90
2019-05-29T05:32:16.028Z,99.90
2019-05-29T05:34:45.978Z,99.90
2019-05-29T05:37:15.865Z,99.90
2019-05-29T05:39:45.823Z,99.90
2019-05-29T05:42:15.701Z,99.90
2019-05-29T05:44:45.606Z,99.90
2019-05-29T05:47:15.477Z,99.90
2019-05-29T05:49:45.436Z,99.90
2019-05-29T05:52:15.427Z,99.90
2019-05-29T05:54:45.298Z,99.90
2019-05-29T05:57:15.279Z,99.90
2019-05-29T05:59:46.185Z,99.90
2019-05-29T06:02:16.137Z,99.90
2019-05-29T06:04:46.036Z,99.90
2019-05-29T06:07:15.942Z,99.90
2019-05-29T06:09:45.899Z,99.90
2019-05-29T06:12:15.857Z,99.90
2019-05-29T06:14:45.833Z,99.90
2019-05-29T06:17:15.762Z,99.90
2019-05-29T06:19:45.662Z,99.90
2019-05-29T06:22:15.621Z,99.90
2019-05-29T06:24:45.764Z,99.90
2019-05-29T06:27:15.698Z,99.90
2019-05-29T06:29:46.315Z,99.90
2019-05-29T06:32:16.333Z,99.90
2019-05-29T06:34:46.263Z,99.90
2019-05-29T06:37:16.204Z,99.90
2019-05-29T06:39:46.088Z,99.90
2019-05-29T06:42:16.034Z,99.90
2019-05-29T06:44:48.533Z,99.90
2019-05-29T06:47:17.695Z,99.90
2019-05-29T06:49:47.569Z,99.90
2019-05-29T06:52:17.499Z,99.90
2019-05-29T06:54:48.174Z,99.90
2019-05-29T06:57:18.158Z,99.90
2019-05-29T06:59:48.913Z,99.90
2019-05-29T07:02:19.085Z,99.90
2019-05-29T07:04:49.044Z,99.90
2019-05-29T07:07:19.046Z,99.90
2019-05-29T07:09:48.984Z,99.90
2019-05-29T07:12:18.932Z,99.90
2019-05-29T07:14:48.821Z,99.90
2019-05-29T07:17:18.729Z,99.90
2019-05-29T07:20:00.112Z,99.90
2019-05-29T07:22:20.390Z,99.90
2019-05-29T07:24:50.273Z,99.90
2019-05-29T07:27:20.191Z,99.90
2019-05-29T07:29:50.086Z,99.90
2019-05-29T07:32:20.059Z,99.90
2019-05-29T07:35:02.653Z,99.90
2019-05-29T07:37:21.576Z,99.90
2019-05-29T07:39:51.439Z,99.90
2019-05-29T07:42:21.520Z,99.90
2019-05-29T07:44:51.402Z,99.90
2019-05-29T07:47:21.911Z,99.90
2019-05-29T07:49:51.869Z,99.90
2019-05-29T07:52:21.790Z,99.90
2019-05-29T07:54:51.698Z,99.90
2019-05-29T07:57:21.602Z,99.90
2019-05-29T07:59:51.510Z,99.90
2019-05-29T08:02:21.415Z,99.90
2019-05-29T08:04:51.323Z,99.90
2019-05-29T08:07:21.443Z,99.90
2019-05-29T08:09:51.423Z,99.90
2019-05-29T08:12:21.310Z,99.90
2019-05-29T08:14:51.247Z,99.90
2019-05-29T08:17:21.191Z,99.90
2019-05-29T08:20:05.398Z,99.90
2019-05-29T08:22:33.850Z,99.90
2019-05-29T08:24:54.416Z,99.90
2019-05-29T08:27:24.303Z,99.90
2019-05-29T08:29:54.295Z,99.90
2019-05-29T08:32:24.193Z,99.90
2019-05-29T08:34:54.223Z,99.90
2019-05-29T08:37:24.262Z,99.90
2019-05-29T08:39:54.668Z,99.90
2019-05-29T08:42:24.646Z,99.90
2019-05-29T08:44:54.650Z,99.90
2019-05-29T08:47:24.555Z,99.90
2019-05-29T08:49:54.776Z,99.90
2019-05-29T08:52:24.664Z,99.90
2019-05-29T08:54:54.568Z,99.90
2019-05-29T08:57:24.556Z,99.90
2019-05-29T08:59:54.707Z,99.90
2019-05-29T09:02:24.676Z,99.90
2019-05-29T09:04:54.974Z,99.90
2019-05-29T09:07:24.918Z,99.90
2019-05-29T09:09:54.911Z,99.90
2019-05-29T09:12:25.097Z,99.90
2019-05-29T09:14:55.201Z,99.90
2019-05-29T09:17:25.143Z,99.90
2019-05-29T09:19:55.325Z,99.90
2019-05-29T09:22:25.224Z,99.90
2019-05-29T09:24:55.475Z,99.90
2019-05-29T09:27:25.340Z,99.90
2019-05-29T09:29:55.348Z,99.90
2019-05-29T09:32:48.642Z,99.90
2019-05-29T09:34:56.978Z,99.90
2019-05-29T09:37:26.880Z,99.90
2019-05-29T09:39:56.746Z,99.90
2019-05-29T09:42:26.745Z,99.90
2019-05-29T09:44:56.606Z,99.90
2019-05-29T09:47:26.584Z,99.90
2019-05-29T09:49:56.585Z,99.90
2019-05-29T09:52:30.482Z,99.90
2019-05-29T09:54:58.315Z,99.90
2019-05-29T09:57:28.444Z,99.90
2019-05-29T09:59:59.941Z,99.90
2019-05-29T10:02:29.988Z,99.90
2019-05-29T10:05:01.086Z,99.90
2019-05-29T10:07:31.824Z,99.90
2019-05-29T10:10:04.644Z,99.90
2019-05-29T10:12:33.349Z,99.90
2019-05-29T10:15:04.401Z,99.90
2019-05-29T10:17:34.322Z,99.90
2019-05-29T10:20:05.097Z,99.90
2019-05-29T10:22:35.012Z,99.90
2019-05-29T10:25:05.860Z,99.90
2019-05-29T10:27:35.905Z,99.90
2019-05-29T10:30:06.862Z,99.90
2019-05-29T10:32:36.855Z,99.90
2019-05-29T10:35:07.026Z,99.90
2019-05-29T10:37:37.092Z,99.90
2019-05-29T10:40:07.885Z,99.90
2019-05-29T10:42:37.978Z,99.90
2019-05-29T10:45:08.650Z,99.90
2019-05-29T10:47:38.859Z,99.90
2019-05-29T10:50:09.433Z,99.90
2019-05-29T10:52:39.498Z,99.90
2019-05-29T10:55:10.878Z,99.90
2019-05-29T10:57:41.059Z,99.90
2019-05-29T11:00:11.765Z,99.90
2019-05-29T11:02:41.699Z,99.90
2019-05-29T11:05:11.744Z,99.90
2019-05-29T11:07:41.818Z,99.90
2019-05-29T11:10:13.633Z,99.90
2019-05-29T11:12:43.947Z,99.90
2019-05-29T11:15:21.232Z,99.90
2019-05-29T11:17:47.171Z,99.90
2019-05-29T11:20:18.123Z,99.90
2019-05-29T11:22:48.139Z,99.90
2019-05-29T11:25:24.856Z,99.90
2019-05-29T11:27:50.495Z,99.90
2019-05-29T11:30:20.813Z,99.90
2019-05-29T11:32:53.053Z,99.90
2019-05-29T11:35:23.493Z,99.90
2019-05-29T11:37:54.628Z,99.90
2019-05-29T11:40:24.920Z,99.90
2019-05-29T11:42:55.175Z,99.90
2019-05-29T11:45:25.525Z,99.90
2019-05-29T11:47:57.341Z,99.00
2019-05-29T11:50:28.550Z,99.20
2019-05-29T11:52:58.624Z,99.90
2019-05-29T11:55:28.630Z,99.90
2019-05-29T11:57:59.783Z,98.30
2019-05-29T12:00:30.192Z,95.50
2019-05-29T12:03:01.737Z,94.80
2019-05-29T12:05:31.628Z,94.00
2019-05-29T12:08:01.978Z,96.00
2019-05-29T12:10:31.966Z,96.60
2019-05-29T12:13:01.974Z,95.10
2019-05-29T12:15:31.936Z,93.10
2019-05-29T12:18:20.001Z,94.10
2019-05-29T12:20:33.609Z,94.50
2019-05-29T12:23:26.213Z,94.90
2019-05-29T12:25:35.276Z,94.20
2019-05-29T12:28:05.348Z,93.70
2019-05-29T12:30:35.745Z,94.40
2019-05-29T12:33:10.387Z,94.90
2019-05-29T12:35:40.330Z,95.60
2019-05-29T12:38:10.325Z,95.00
2019-05-29T12:40:40.233Z,97.30
2019-05-29T12:43:26.017Z,98.60
2019-05-29T12:45:41.849Z,99.60
2019-05-29T12:48:14.530Z,98.90
2019-05-29T12:50:43.459Z,99.50
2019-05-29T12:53:28.988Z,99.90
2019-05-29T12:55:44.956Z,99.90
2019-05-29T12:58:14.849Z,99.90
2019-05-29T13:00:44.814Z,99.90
2019-05-29T13:03:14.816Z,99.90
2019-05-29T13:05:45.176Z,99.90
2019-05-29T13:08:15.296Z,99.90
2019-05-29T13:10:45.238Z,99.90
2019-05-29T13:13:15.209Z,99.90
2019-05-29T13:15:45.148Z,99.90
2019-05-29T13:18:16.331Z,99.90
2019-05-29T13:20:46.315Z,99.90
2019-05-29T13:23:16.255Z,99.90
2019-05-29T13:25:46.443Z,99.90
2019-05-29T13:28:16.400Z,99.90
2019-05-29T13:30:46.332Z,99.90
2019-05-29T13:33:16.318Z,99.60
2019-05-29T13:35:46.243Z,98.50
2019-05-29T13:38:16.209Z,97.90
2019-05-29T13:40:46.166Z,97.50
2019-05-29T13:43:16.278Z,96.60
2019-05-29T13:45:46.325Z,96.70
2019-05-29T13:48:16.388Z,97.10
2019-05-29T13:50:48.723Z,97.60
2019-05-29T13:53:17.915Z,97.00
2019-05-29T13:55:47.776Z,97.50
2019-05-29T13:58:17.669Z,96.60
2019-05-29T14:00:47.810Z,96.90
2019-05-29T14:03:17.947Z,97.60
2019-05-29T14:05:47.921Z,98.30
2019-05-29T14:08:18.030Z,99.00
2019-05-29T14:10:47.964Z,99.00
2019-05-29T14:13:17.923Z,98.40
2019-05-29T14:15:47.845Z,97.90
2019-05-29T14:18:17.790Z,98.00
2019-05-29T14:20:48.130Z,98.70
2019-05-29T14:23:18.029Z,98.50
2019-05-29T14:25:47.951Z,99.40
2019-05-29T14:28:17.822Z,99.90
2019-05-29T14:30:47.877Z,99.90
2019-05-29T14:33:17.956Z,98.50
2019-05-29T14:35:48.060Z,99.10
2019-05-29T14:38:18.093Z,99.90
2019-05-29T14:40:48.598Z,99.90
2019-05-29T14:43:18.481Z,99.90
2019-05-29T14:45:48.436Z,99.90
2019-05-29T14:48:18.324Z,99.90
2019-05-29T14:50:48.313Z,99.90
2019-05-29T14:53:18.208Z,99.90
2019-05-29T14:55:48.096Z,99.90
2019-05-29T14:58:17.979Z,99.90
2019-05-29T15:00:47.995Z,99.90
2019-05-29T15:03:18.258Z,99.90
2019-05-29T15:05:48.157Z,99.90
2019-05-29T15:08:18.111Z,99.90
2019-05-29T15:10:48.075Z,99.90
2019-05-29T15:13:17.976Z,99.90
2019-05-29T15:15:48.427Z,99.90
2019-05-29T15:18:19.235Z,99.90
2019-05-29T15:20:49.505Z,99.90
2019-05-29T15:23:19.801Z,99.90
2019-05-29T15:25:49.722Z,99.90
2019-05-29T15:28:19.595Z,99.90
2019-05-29T15:30:49.522Z,99.90
2019-05-29T15:33:19.542Z,99.90
2019-05-29T15:35:49.468Z,99.90
2019-05-29T15:38:19.346Z,99.90
2019-05-29T15:40:49.785Z,99.90
2019-05-29T15:43:19.690Z,99.90
2019-05-29T15:45:50.533Z,99.90
2019-05-29T15:48:20.541Z,99.90
2019-05-29T15:50:50.558Z,99.90
2019-05-29T15:53:20.495Z,99.90
2019-05-29T15:55:50.426Z,99.90
2019-05-29T15:58:20.307Z,99.90
2019-05-29T16:00:50.214Z,99.90
2019-05-29T16:03:20.763Z,99.90
2019-05-29T16:05:50.690Z,99.90
2019-05-29T16:08:20.633Z,99.90
2019-05-29T16:10:50.552Z,99.90
2019-05-29T16:13:20.426Z,99.90
2019-05-29T16:15:50.400Z,99.90
2019-05-29T16:18:28.131Z,99.90
2019-05-29T16:20:52.301Z,99.90
2019-05-29T16:23:34.971Z,99.90
2019-05-29T16:25:54.440Z,99.90
2019-05-29T16:28:24.305Z,99.90
2019-05-29T16:30:54.656Z,99.90
2019-05-29T16:33:24.543Z,99.90
2019-05-29T16:35:54.575Z,99.90
2019-05-29T16:38:24.526Z,99.90
2019-05-29T16:40:54.458Z,99.90
2019-05-29T16:43:24.526Z,99.90
2019-05-29T16:45:55.178Z,99.90
2019-05-29T16:48:25.076Z,99.90
2019-05-29T16:50:55.058Z,99.90
2019-05-29T16:53:24.929Z,99.90
2019-05-29T16:55:54.830Z,99.90
2019-05-29T16:58:24.767Z,99.90
2019-05-29T17:00:54.666Z,99.90
2019-05-29T17:03:24.523Z,99.90
2019-05-29T17:05:55.178Z,99.90
2019-05-29T17:08:25.090Z,99.90
2019-05-29T17:10:55.030Z,99.90
2019-05-29T17:13:24.941Z,99.90
2019-05-29T17:15:54.880Z,99.90
2019-05-29T17:18:25.103Z,99.90
2019-05-29T17:20:55.116Z,99.90
2019-05-29T17:23:25.189Z,99.90
2019-05-29T17:26:09.550Z,99.90
2019-05-29T17:28:28.336Z,99.90
2019-05-29T17:31:01.997Z,99.90
2019-05-29T17:33:30.016Z,99.90
2019-05-29T17:36:00.138Z,99.90
2019-05-29T17:38:30.092Z,99.90
2019-05-29T17:40:59.974Z,99.90
2019-05-29T17:43:29.842Z,99.90
2019-05-29T17:45:59.745Z,99.90
2019-05-29T17:48:30.290Z,99.90
2019-05-29T17:51:00.277Z,99.90
2019-05-29T17:53:30.164Z,99.90
2019-05-29T17:56:00.078Z,99.90
2019-05-29T17:58:30.318Z,99.90
2019-05-29T18:01:00.272Z,99.90
2019-05-29T18:03:30.289Z,99.90
2019-05-29T18:06:00.269Z,99.90
2019-05-29T18:08:30.487Z,99.90
2019-05-29T18:11:00.390Z,99.90
2019-05-29T18:13:30.377Z,99.90
2019-05-29T18:16:00.322Z,99.90
2019-05-29T18:18:30.210Z,99.90
2019-05-29T18:21:00.080Z,99.90
2019-05-29T18:23:30.011Z,99.90
2019-05-29T18:25:59.884Z,99.90
2019-05-29T18:28:30.017Z,99.90
2019-05-29T18:31:00.460Z,99.90
2019-05-29T18:33:30.478Z,99.90
2019-05-29T18:36:00.418Z,99.90
2019-05-29T18:38:30.339Z,99.90
2019-05-29T18:41:00.228Z,99.90
2019-05-29T18:43:30.423Z,99.90
2019-05-29T18:46:00.389Z,99.90
2019-05-29T18:48:32.311Z,99.90
2019-05-29T18:51:02.199Z,99.90
2019-05-29T18:53:33.109Z,99.90
2019-05-29T18:56:03.067Z,99.90
2019-05-29T18:58:33.025Z,99.90
2019-05-29T19:01:03.489Z,99.90
2019-05-29T19:03:33.656Z,99.90
2019-05-29T19:06:03.537Z,99.90
2019-05-29T19:08:33.470Z,99.90
2019-05-29T19:11:03.641Z,99.90
2019-05-29T19:13:33.834Z,99.90
2019-05-29T19:16:03.886Z,99.90
2019-05-29T19:18:34.023Z,99.90
2019-05-29T19:21:03.904Z,99.90
2019-05-29T19:23:33.817Z,99.90
2019-05-29T19:26:03.996Z,99.90
2019-05-29T19:28:34.330Z,99.90
2019-05-29T19:31:04.239Z,99.90
2019-05-29T19:33:34.218Z,99.90
2019-05-29T19:36:04.326Z,99.90
2019-05-29T19:38:34.312Z,99.90
2019-05-29T19:41:04.270Z,99.90
2019-05-29T19:43:34.557Z,99.90
2019-05-29T19:46:04.514Z,99.90
2019-05-29T19:48:35.279Z,99.90
2019-05-29T19:51:05.335Z,99.90
2019-05-29T19:53:35.687Z,99.90
2019-05-29T19:56:05.872Z,99.90
2019-05-29T19:58:36.599Z,99.90
2019-05-29T20:01:07.315Z,99.90
2019-05-29T20:03:37.281Z,99.90
2019-05-29T20:06:07.285Z,99.90
2019-05-29T20:08:39.608Z,99.90
2019-05-29T20:11:09.623Z,99.90
2019-05-29T20:13:39.538Z,99.90
2019-05-29T20:16:09.578Z,99.90
2019-05-29T20:18:39.557Z,99.90
2019-05-29T20:21:09.501Z,99.90
2019-05-29T20:23:39.673Z,99.90
2019-05-29T20:26:09.608Z,99.90
2019-05-29T20:28:40.495Z,99.90
2019-05-29T20:31:12.102Z,99.90
2019-05-29T20:33:42.820Z,99.90
2019-05-29T20:36:12.730Z,99.90
2019-05-29T20:38:43.351Z,99.90
2019-05-29T20:41:13.734Z,99.90
2019-05-29T20:43:43.699Z,99.90
2019-05-29T20:46:13.850Z,99.90
2019-05-29T20:48:44.987Z,99.90
2019-05-29T20:51:15.431Z,99.90
2019-05-29T20:53:45.361Z,99.90
2019-05-29T20:56:15.245Z,99.90
2019-05-29T20:58:45.377Z,99.90
2019-05-29T21:01:15.886Z,99.90
2019-05-29T21:03:46.024Z,99.90
2019-05-29T21:06:15.931Z,99.90
2019-05-29T21:08:45.934Z,99.90
2019-05-29T21:11:16.419Z,99.90
2019-05-29T21:13:46.339Z,99.90
2019-05-29T21:16:16.359Z,99.90
2019-05-29T21:18:46.310Z,99.90
2019-05-29T21:21:16.777Z,99.90
2019-05-29T21:23:46.787Z,99.90
2019-05-29T21:26:16.809Z,99.90
2019-05-29T21:28:50.583Z,99.90
2019-05-29T21:31:18.825Z,99.90
2019-05-29T21:33:49.436Z,99.90
2019-05-29T21:36:19.495Z,99.90
2019-05-29T21:38:49.639Z,99.90
2019-05-29T21:41:19.529Z,99.90
2019-05-29T21:43:49.618Z,99.90
2019-05-29T21:46:20.042Z,99.90
2019-05-29T21:48:49.950Z,99.90
2019-05-29T21:51:20.162Z,99.90
2019-05-29T21:53:50.364Z,99.90
2019-05-29T21:56:20.316Z,99.90
2019-05-29T21:59:02.701Z,99.90
2019-05-29T22:01:22.920Z,99.90
2019-05-29T22:03:54.244Z,99.90
2019-05-29T22:06:24.347Z,99.90
2019-05-29T22:08:54.271Z,99.90
2019-05-29T22:11:24.302Z,99.90
2019-05-29T22:13:54.896Z,99.90
2019-05-29T22:16:24.880Z,99.90
2019-05-29T22:18:54.991Z,99.90
2019-05-29T22:21:25.077Z,99.90
2019-05-29T22:23:55.201Z,99.90
2019-05-29T22:26:25.146Z,99.90
2019-05-29T22:28:55.258Z,99.90
2019-05-29T22:31:25.515Z,99.90
2019-05-29T22:33:55.631Z,99.90
2019-05-29T22:36:25.590Z,99.90
2019-05-29T22:38:56.018Z,99.90
2019-05-29T22:41:26.479Z,99.90
2019-05-29T22:43:57.508Z,99.90
2019-05-29T22:46:27.947Z,99.90
2019-05-29T22:48:57.918Z,99.90
2019-05-29T22:51:28.535Z,99.90
2019-05-29T22:53:58.449Z,99.90
2019-05-29T22:56:28.504Z,99.90
2019-05-29T22:59:00.037Z,99.90
2019-05-29T23:01:30.056Z,99.90
2019-05-29T23:04:00.336Z,99.90
2019-05-29T23:06:30.305Z,99.90
2019-05-29T23:09:00.475Z,99.90
2019-05-29T23:11:30.463Z,99.90
2019-05-29T23:14:00.418Z,99.90
2019-05-29T23:16:30.306Z,99.90
2019-05-29T23:19:00.883Z,99.90
2019-05-29T23:21:30.855Z,99.90
2019-05-29T23:24:01.794Z,99.90
2019-05-29T23:26:31.679Z,99.90
2019-05-29T23:29:03.781Z,99.90
2019-05-29T23:31:33.323Z,99.90
2019-05-29T23:34:03.411Z,99.90
2019-05-29T23:36:33.443Z,99.90
2019-05-29T23:39:03.562Z,99.90
2019-05-29T23:41:33.688Z,99.90
2019-05-29T23:44:04.124Z,99.90
2019-05-29T23:46:34.108Z,99.90
2019-05-29T23:49:04.045Z,99.90
2019-05-29T23:51:34.087Z,99.90
2019-05-29T23:54:04.197Z,99.90
2019-05-29T23:56:34.477Z,99.90
2019-05-29T23:59:04.464Z,99.90
